createdAt,value
2022-08-17T00:01:27.165Z,22.41
2022-08-17T00:03:57.789Z,23.04
2022-08-17T00:06:30.110Z,23.04
2022-08-17T00:09:02.203Z,22.77
2022-08-17T00:11:36.954Z,22.61
2022-08-17T00:14:11.924Z,23.02
2022-08-17T00:16:55.505Z,22.62
2022-08-17T00:19:17.333Z,22.99
2022-08-17T00:22:33.120Z,23.07
2022-08-17T00:24:20.502Z,22.46
2022-08-17T00:26:49.681Z,23.71
2022-08-17T00:29:19.877Z,23.19
2022-08-17T00:31:50.230Z,23.26
2022-08-17T00:34:19.928Z,23.56
2022-08-17T00:36:49.104Z,23.53
2022-08-17T00:39:18.406Z,22.75
2022-08-17T00:41:48.054Z,24.07
2022-08-17T00:44:17.172Z,23.92
2022-08-17T00:46:48.258Z,23.92
2022-08-17T00:49:22.741Z,25.91
2022-08-17T00:51:57.726Z,24.00
2022-08-17T00:54:32.516Z,23.55
2022-08-17T00:57:06.248Z,24.62
2022-08-17T00:59:41.899Z,24.62
2022-08-17T01:02:13.557Z,24.38
2022-08-17T01:04:45.420Z,24.15
2022-08-17T01:07:15.211Z,24.54
2022-08-17T01:09:45.247Z,25.15
2022-08-17T01:12:14.930Z,24.28
2022-08-17T01:14:44.330Z,23.17
2022-08-17T01:17:13.674Z,22.63
2022-08-17T01:19:45.594Z,22.68
2022-08-17T01:22:17.581Z,24.26
2022-08-17T01:24:49.849Z,23.55
2022-08-17T01:27:20.688Z,23.65
2022-08-17T01:29:53.371Z,23.33
2022-08-17T01:32:22.563Z,23.11
2022-08-17T01:34:51.712Z,22.79
2022-08-17T01:37:23.829Z,22.73
2022-08-17T01:39:55.959Z,23.01
2022-08-17T01:42:28.064Z,23.20
2022-08-17T01:45:03.317Z,22.33
2022-08-17T01:47:32.801Z,22.71
2022-08-17T01:50:11.936Z,23.29
2022-08-17T01:52:42.596Z,22.86
2022-08-17T01:55:12.300Z,23.84
2022-08-17T01:57:41.477Z,23.78
2022-08-17T02:00:11.223Z,23.13
2022-08-17T02:02:40.706Z,23.20
2022-08-17T02:05:10.449Z,22.91
2022-08-17T02:07:59.602Z,22.91
2022-08-17T02:10:20.034Z,23.80
2022-08-17T02:12:42.654Z,23.80
2022-08-17T02:15:14.901Z,23.95
2022-08-17T02:17:45.605Z,24.67
2022-08-17T02:20:15.367Z,23.41
2022-08-17T02:22:49.115Z,23.25
2022-08-17T02:25:21.457Z,23.03
2022-08-17T02:27:50.616Z,22.82
2022-08-17T02:31:00.335Z,22.67
2022-08-17T02:32:56.454Z,22.89
2022-08-17T02:35:25.859Z,24.06
2022-08-17T02:37:55.709Z,23.11
2022-08-17T02:40:36.308Z,23.60
2022-08-17T02:42:56.133Z,23.08
2022-08-17T02:45:26.722Z,23.31
2022-08-17T02:47:56.050Z,23.05
2022-08-17T02:50:26.543Z,22.76
2022-08-17T02:53:02.228Z,22.44
2022-08-17T02:55:29.890Z,23.05
2022-08-17T02:57:59.704Z,23.05
2022-08-17T03:00:33.404Z,23.27
2022-08-17T03:03:05.111Z,23.23
2022-08-17T03:05:37.024Z,23.68
2022-08-17T03:08:10.400Z,23.68
2022-08-17T03:10:38.590Z,23.51
2022-08-17T03:13:07.816Z,23.51
2022-08-17T03:15:36.990Z,23.32
2022-08-17T03:18:07.722Z,23.38
2022-08-17T03:20:38.697Z,23.15
2022-08-17T03:23:08.547Z,22.73
2022-08-17T03:25:44.428Z,23.02
2022-08-17T03:28:14.925Z,23.24
2022-08-17T03:30:44.049Z,23.24
2022-08-17T03:33:13.441Z,22.34
2022-08-17T03:35:43.085Z,22.40
2022-08-17T03:38:15.898Z,21.86
2022-08-17T03:40:57.380Z,20.93
2022-08-17T03:43:18.604Z,21.33
2022-08-17T03:46:06.007Z,20.81
2022-08-17T03:48:54.928Z,21.74
2022-08-17T03:51:43.997Z,20.60
2022-08-17T03:54:31.238Z,21.01
2022-08-17T03:57:06.383Z,21.01
2022-08-17T03:59:36.520Z,22.27
2022-08-17T04:02:11.424Z,21.18
2022-08-17T04:04:41.349Z,20.99
2022-08-17T04:07:10.810Z,19.99
2022-08-17T04:09:40.020Z,20.93
2022-08-17T04:12:09.452Z,20.24
2022-08-17T04:14:52.677Z,20.77
2022-08-17T04:17:10.089Z,20.77
2022-08-17T04:19:39.270Z,20.34
2022-08-17T04:22:08.469Z,20.28
2022-08-17T04:24:37.890Z,20.28
2022-08-17T04:27:07.071Z,20.53
2022-08-17T04:29:54.180Z,20.37
2022-08-17T04:32:08.020Z,20.14
2022-08-17T04:34:37.169Z,20.35
2022-08-17T04:37:06.320Z,20.35
2022-08-17T04:39:35.520Z,20.52
2022-08-17T04:42:10.586Z,20.31
2022-08-17T04:44:39.602Z,20.52
2022-08-17T04:47:10.652Z,19.94
2022-08-17T04:49:39.611Z,19.94
2022-08-17T04:52:08.782Z,20.58
2022-08-17T04:54:39.514Z,20.58
2022-08-17T04:57:08.732Z,21.08
2022-08-17T04:59:37.916Z,21.17
2022-08-17T05:02:07.119Z,27.24
2022-08-17T05:04:36.514Z,27.24
2022-08-17T05:07:07.080Z,25.88
2022-08-17T05:09:36.244Z,26.53
2022-08-17T05:12:06.297Z,26.55
2022-08-17T05:14:35.567Z,26.12
2022-08-17T05:17:07.415Z,27.02
2022-08-17T05:19:35.549Z,26.67
2022-08-17T05:22:07.554Z,26.67
2022-08-17T05:24:42.459Z,26.21
2022-08-17T05:27:07.802Z,26.56
2022-08-17T05:29:37.198Z,25.09
2022-08-17T05:32:38.952Z,24.41
2022-08-17T05:34:44.727Z,24.41
2022-08-17T05:37:13.910Z,23.40
2022-08-17T05:39:43.125Z,23.40
2022-08-17T05:42:12.161Z,23.31
2022-08-17T05:44:41.316Z,23.31
2022-08-17T05:47:10.390Z,22.80
2022-08-17T05:49:40.911Z,21.65
2022-08-17T05:52:20.268Z,21.65
2022-08-17T05:55:16.797Z,22.12
2022-08-17T05:58:00.636Z,22.54
2022-08-17T06:00:35.018Z,22.08
2022-08-17T06:03:10.292Z,21.65
2022-08-17T06:06:01.842Z,21.61
2022-08-17T06:08:53.566Z,21.61
2022-08-17T06:11:35.292Z,21.05
2022-08-17T06:14:29.728Z,21.05
2022-08-17T06:17:01.996Z,21.32
2022-08-17T06:19:42.674Z,21.32
2022-08-17T06:22:14.727Z,22.32
2022-08-17T06:24:57.069Z,22.32
2022-08-17T06:27:38.108Z,21.14
2022-08-17T06:30:28.541Z,21.21
2022-08-17T06:33:03.128Z,23.46
2022-08-17T06:35:41.239Z,23.46
2022-08-17T06:38:38.417Z,20.77
2022-08-17T06:41:08.868Z,20.78
2022-08-17T06:43:57.065Z,20.78
2022-08-17T06:46:38.254Z,20.12
2022-08-17T06:49:26.605Z,19.70
2022-08-17T06:51:58.558Z,19.85
2022-08-17T06:54:33.156Z,20.78
2022-08-17T06:57:20.214Z,20.78
2022-08-17T07:00:04.041Z,19.72
2022-08-17T07:02:54.639Z,20.37
2022-08-17T07:05:26.798Z,20.90
2022-08-17T07:08:08.109Z,20.00
2022-08-17T07:10:40.079Z,19.50
2022-08-17T07:13:18.463Z,19.77
2022-08-17T07:15:54.013Z,19.77
2022-08-17T07:18:24.782Z,20.51
2022-08-17T07:20:57.521Z,20.51
2022-08-17T07:23:47.613Z,18.62
2022-08-17T07:26:16.711Z,18.62
2022-08-17T07:28:46.403Z,19.40
2022-08-17T07:31:17.492Z,19.58
2022-08-17T07:33:49.536Z,20.33
2022-08-17T07:36:30.364Z,19.49
2022-08-17T07:38:59.960Z,19.49
2022-08-17T07:41:53.178Z,18.99
2022-08-17T07:44:02.137Z,18.99
2022-08-17T07:46:54.239Z,19.43
2022-08-17T07:49:31.850Z,18.78
2022-08-17T07:52:24.054Z,19.15
2022-08-17T07:54:43.424Z,19.15
2022-08-17T07:57:18.458Z,19.76
2022-08-17T08:00:06.287Z,19.76
2022-08-17T08:02:42.791Z,19.60
2022-08-17T08:05:49.695Z,19.35
2022-08-17T08:08:02.656Z,19.35
2022-08-17T08:10:42.823Z,19.00
2022-08-17T08:13:24.406Z,18.90
2022-08-17T08:15:57.089Z,18.90
2022-08-17T08:18:53.754Z,19.27
2022-08-17T08:21:09.849Z,19.27
2022-08-17T08:23:41.883Z,18.90
2022-08-17T08:26:30.653Z,19.77
2022-08-17T08:29:25.434Z,20.36
2022-08-17T08:32:13.787Z,20.36
2022-08-17T08:35:02.864Z,18.35
2022-08-17T08:37:50.359Z,19.27
2022-08-17T08:40:39.546Z,19.27
2022-08-17T08:43:33.006Z,19.97
2022-08-17T08:46:24.939Z,22.21
2022-08-17T08:49:59.483Z,21.21
2022-08-17T08:52:04.814Z,23.26
2022-08-17T08:54:54.081Z,21.90
2022-08-17T08:57:35.401Z,21.56
2022-08-17T09:00:14.945Z,21.56
2022-08-17T09:03:04.986Z,21.37
2022-08-17T09:05:49.030Z,21.40
2022-08-17T09:08:21.127Z,20.41
2022-08-17T09:11:08.633Z,21.48
2022-08-17T09:14:01.794Z,22.28
2022-08-17T09:16:35.298Z,22.25
2022-08-17T09:19:13.216Z,20.87
2022-08-17T09:21:48.957Z,21.41
2022-08-17T09:24:43.450Z,21.88
2022-08-17T09:27:18.817Z,22.39
2022-08-17T09:29:53.879Z,21.85
2022-08-17T09:32:25.777Z,21.85
2022-08-17T09:34:59.694Z,22.45
2022-08-17T09:37:40.653Z,22.45
2022-08-17T09:40:12.867Z,21.09
2022-08-17T09:42:47.978Z,21.09
2022-08-17T09:45:34.977Z,20.66
2022-08-17T09:48:25.164Z,18.71
2022-08-17T09:51:07.994Z,18.71
2022-08-17T09:53:40.806Z,20.54
2022-08-17T09:56:24.762Z,19.79
2022-08-17T09:59:20.844Z,17.94
2022-08-17T10:01:54.137Z,19.23
2022-08-17T10:05:01.220Z,20.07
2022-08-17T10:07:36.079Z,19.16
2022-08-17T10:10:14.080Z,19.16
2022-08-17T10:13:13.663Z,21.54
2022-08-17T10:15:57.405Z,22.28
2022-08-17T10:18:44.518Z,23.65
2022-08-17T10:21:34.511Z,24.26
2022-08-17T10:24:30.253Z,24.26
2022-08-17T10:27:02.294Z,25.05
2022-08-17T10:29:49.942Z,25.05
2022-08-17T10:32:27.647Z,22.38
2022-08-17T10:35:19.447Z,22.38
2022-08-17T10:38:06.980Z,21.90
2022-08-17T10:41:00.448Z,21.90
2022-08-17T10:43:55.832Z,23.08
2022-08-17T10:46:33.754Z,22.69
2022-08-17T10:49:21.829Z,21.38
2022-08-17T10:51:56.437Z,22.32
2022-08-17T10:54:43.337Z,22.55
2022-08-17T10:57:35.096Z,22.55
2022-08-17T11:00:27.430Z,22.92
2022-08-17T11:02:58.523Z,20.45
2022-08-17T11:05:53.322Z,20.30
2022-08-17T11:08:40.752Z,21.33
2022-08-17T11:11:25.844Z,21.35
2022-08-17T11:14:17.588Z,21.35
2022-08-17T11:17:07.282Z,20.97
2022-08-17T11:19:51.030Z,20.97
2022-08-17T11:22:42.207Z,21.13
2022-08-17T11:25:16.894Z,21.84
2022-08-17T11:27:50.462Z,20.08
2022-08-17T11:30:44.934Z,22.44
2022-08-17T11:33:32.444Z,21.61
2022-08-17T11:36:20.008Z,21.12
2022-08-17T11:38:52.866Z,20.21
2022-08-17T11:41:28.509Z,20.06
2022-08-17T11:44:24.756Z,21.52
2022-08-17T11:47:29.471Z,20.91
2022-08-17T11:50:45.056Z,21.85
2022-08-17T11:53:39.909Z,20.26
2022-08-17T11:56:34.515Z,21.36
2022-08-17T11:59:04.584Z,22.47
2022-08-17T12:01:53.244Z,21.90
2022-08-17T12:04:33.848Z,21.31
2022-08-17T12:07:18.156Z,21.31
2022-08-17T12:09:50.569Z,21.06
2022-08-17T12:12:22.810Z,21.14
2022-08-17T12:15:12.070Z,22.04
2022-08-17T12:17:40.092Z,20.78
2022-08-17T12:20:18.715Z,20.93
2022-08-17T12:23:06.209Z,21.54
2022-08-17T12:25:56.885Z,21.54
2022-08-17T12:28:34.290Z,22.13
2022-08-17T12:31:06.639Z,22.13
2022-08-17T12:33:37.795Z,21.02
2022-08-17T12:36:11.688Z,21.19
2022-08-17T12:38:42.003Z,21.19
2022-08-17T12:41:29.745Z,21.74
2022-08-17T12:44:04.578Z,20.60
2022-08-17T12:46:36.638Z,20.14
2022-08-17T12:49:26.643Z,21.32
2022-08-17T12:52:20.130Z,21.21
2022-08-17T12:54:55.153Z,21.07
2022-08-17T12:57:35.889Z,21.75
2022-08-17T13:00:11.176Z,21.42
2022-08-17T13:02:43.239Z,21.76
2022-08-17T13:05:35.039Z,20.88
2022-08-17T13:08:16.307Z,20.62
2022-08-17T13:10:47.448Z,20.62
2022-08-17T13:13:34.571Z,20.96
2022-08-17T13:16:15.237Z,21.74
2022-08-17T13:18:56.129Z,21.55
2022-08-17T13:21:30.788Z,21.79
2022-08-17T13:24:16.644Z,19.99
2022-08-17T13:27:10.093Z,19.90
2022-08-17T13:29:44.100Z,19.90
2022-08-17T13:32:19.909Z,19.48
2022-08-17T13:35:16.533Z,19.26
2022-08-17T13:37:30.336Z,20.57
2022-08-17T13:40:02.770Z,21.07
2022-08-17T13:42:52.407Z,21.79
2022-08-17T13:45:38.777Z,21.79
2022-08-17T13:48:15.049Z,22.39
2022-08-17T13:50:49.980Z,23.38
2022-08-17T13:53:37.113Z,22.87
2022-08-17T13:56:37.558Z,22.87
2022-08-17T13:59:01.757Z,23.33
2022-08-17T14:01:43.480Z,21.44
2022-08-17T14:04:18.743Z,21.44
2022-08-17T14:07:02.993Z,23.58
2022-08-17T14:09:37.421Z,21.61
2022-08-17T14:12:08.741Z,21.61
2022-08-17T14:14:38.576Z,24.11
2022-08-17T14:17:08.093Z,24.11
2022-08-17T14:19:38.140Z,23.48
2022-08-17T14:22:10.158Z,22.99
2022-08-17T14:24:44.889Z,23.73
2022-08-17T14:27:12.193Z,24.32
2022-08-17T14:29:41.539Z,22.56
2022-08-17T14:32:19.568Z,22.56
2022-08-17T14:34:49.903Z,24.38
2022-08-17T14:37:21.735Z,24.38
2022-08-17T14:39:50.995Z,23.57
2022-08-17T14:42:20.868Z,22.90
2022-08-17T14:44:51.272Z,22.90
2022-08-17T14:47:20.367Z,23.13
2022-08-17T14:49:50.183Z,23.31
2022-08-17T14:52:22.020Z,22.99
2022-08-17T14:54:52.573Z,22.99
2022-08-17T14:57:34.266Z,22.21
2022-08-17T14:59:58.143Z,22.83
2022-08-17T15:02:30.888Z,22.20
2022-08-17T15:05:03.419Z,21.67
2022-08-17T15:07:32.820Z,21.67
2022-08-17T15:10:02.660Z,21.98
2022-08-17T15:12:34.353Z,22.10
2022-08-17T15:15:06.390Z,22.37
2022-08-17T15:17:44.538Z,21.50
2022-08-17T15:20:14.729Z,21.13
2022-08-17T15:22:43.469Z,22.09
2022-08-17T15:25:13.738Z,21.23
2022-08-17T15:27:44.177Z,20.61
2022-08-17T15:30:14.119Z,20.61
2022-08-17T15:32:50.742Z,21.02
2022-08-17T15:35:15.452Z,21.28
2022-08-17T15:37:45.936Z,21.31
2022-08-17T15:40:15.305Z,21.31
2022-08-17T15:42:44.507Z,22.04
2022-08-17T15:45:17.217Z,21.10
2022-08-17T15:47:46.835Z,20.73
2022-08-17T15:50:16.338Z,22.18
2022-08-17T15:52:47.189Z,22.18
2022-08-17T15:55:20.799Z,21.73
2022-08-17T15:57:47.985Z,22.28
2022-08-17T16:00:17.638Z,22.28
2022-08-17T16:03:14.863Z,21.44
2022-08-17T16:05:22.307Z,21.80
2022-08-17T16:07:53.659Z,22.88
2022-08-17T16:10:35.066Z,22.88
2022-08-17T16:12:55.338Z,22.74
2022-08-17T16:15:26.265Z,22.73
2022-08-17T16:17:55.571Z,22.88
2022-08-17T16:20:24.856Z,22.88
2022-08-17T16:22:54.959Z,22.39
2022-08-17T16:25:52.757Z,21.38
2022-08-17T16:28:02.347Z,21.38
2022-08-17T16:30:31.944Z,22.76
2022-08-17T16:33:03.048Z,21.28
2022-08-17T16:35:32.512Z,22.23
2022-08-17T16:38:01.606Z,22.23
2022-08-17T16:40:36.023Z,22.60
2022-08-17T16:43:02.376Z,23.32
2022-08-17T16:45:36.925Z,22.67
2022-08-17T16:48:06.874Z,23.04
2022-08-17T16:50:36.204Z,23.15
2022-08-17T16:53:11.024Z,23.64
2022-08-17T16:55:40.617Z,24.92
2022-08-17T16:58:12.637Z,24.92
2022-08-17T17:00:45.385Z,25.63
2022-08-17T17:03:20.719Z,25.18
2022-08-17T17:06:12.731Z,25.18
2022-08-17T17:08:51.062Z,25.43
2022-08-17T17:11:44.462Z,25.43
2022-08-17T17:14:19.442Z,26.13
2022-08-17T17:17:09.381Z,25.99
2022-08-17T17:19:46.567Z,26.36
2022-08-17T17:22:30.463Z,25.90
2022-08-17T17:25:26.446Z,25.90
2022-08-17T17:28:01.466Z,27.84
2022-08-17T17:30:39.541Z,27.10
2022-08-17T17:33:21.878Z,26.47
2022-08-17T17:35:59.555Z,26.20
2022-08-17T17:38:34.268Z,26.20
2022-08-17T17:41:06.247Z,27.04
2022-08-17T17:43:40.316Z,27.65
2022-08-17T17:46:28.063Z,27.64
2022-08-17T17:48:44.375Z,26.12
2022-08-17T17:52:09.263Z,26.12
2022-08-17T17:54:14.467Z,27.96
2022-08-17T17:56:55.572Z,27.92
2022-08-17T17:59:58.197Z,28.80
2022-08-17T18:02:51.894Z,28.80
2022-08-17T18:05:39.561Z,27.72
2022-08-17T18:08:34.757Z,27.72
2022-08-17T18:11:23.936Z,26.46
2022-08-17T18:13:54.005Z,28.98
2022-08-17T18:16:24.683Z,28.98
2022-08-17T18:18:54.080Z,28.55
2022-08-17T18:21:28.199Z,26.71
2022-08-17T18:24:00.143Z,28.07
2022-08-17T18:26:42.083Z,27.55
2022-08-17T18:29:37.603Z,27.55
2022-08-17T18:32:16.908Z,29.70
2022-08-17T18:34:48.863Z,29.70
2022-08-17T18:37:45.633Z,28.55
2022-08-17T18:40:23.960Z,28.45
2022-08-17T18:43:03.708Z,27.51
2022-08-17T18:45:41.379Z,27.86
2022-08-17T18:48:23.703Z,27.86
2022-08-17T18:50:55.808Z,29.21
2022-08-17T18:53:43.060Z,29.21
2022-08-17T18:56:31.155Z,28.29
2022-08-17T18:59:09.503Z,28.83
2022-08-17T19:01:52.469Z,28.89
2022-08-17T19:04:18.503Z,28.89
2022-08-17T19:06:47.921Z,29.14
2022-08-17T19:09:20.191Z,28.52
2022-08-17T19:11:49.696Z,29.28
2022-08-17T19:14:22.565Z,30.43
2022-08-17T19:16:54.772Z,30.43
2022-08-17T19:19:44.980Z,29.94
2022-08-17T19:22:27.008Z,28.79
2022-08-17T19:24:56.275Z,28.79
2022-08-17T19:27:27.129Z,28.35
2022-08-17T19:30:07.819Z,28.88
2022-08-17T19:32:36.343Z,28.83
2022-08-17T19:35:11.426Z,29.16
2022-08-17T19:38:13.296Z,29.10
2022-08-17T19:41:04.057Z,28.77
2022-08-17T19:43:48.556Z,28.88
2022-08-17T19:46:26.368Z,29.09
2022-08-17T19:49:18.855Z,28.60
2022-08-17T19:51:50.780Z,29.00
2022-08-17T19:54:43.920Z,29.00
2022-08-17T19:57:45.051Z,30.22
2022-08-17T20:00:16.991Z,30.23
2022-08-17T20:02:54.799Z,30.23
2022-08-17T20:05:27.271Z,29.42
2022-08-17T20:08:07.813Z,29.58
2022-08-17T20:10:57.930Z,29.58
2022-08-17T20:13:46.474Z,29.91
2022-08-17T20:16:17.346Z,30.16
2022-08-17T20:18:58.506Z,29.79
2022-08-17T20:21:39.786Z,29.94
2022-08-17T20:24:34.801Z,29.94
2022-08-17T20:27:31.593Z,29.41
2022-08-17T20:30:05.937Z,30.00
2022-08-17T20:32:55.743Z,30.21
2022-08-17T20:35:33.854Z,30.79
2022-08-17T20:38:08.960Z,30.65
2022-08-17T20:40:59.981Z,30.65
2022-08-17T20:43:37.832Z,30.28
2022-08-17T20:46:18.555Z,30.28
2022-08-17T20:48:50.889Z,31.79
2022-08-17T20:51:27.490Z,31.82
2022-08-17T20:53:59.874Z,31.31
2022-08-17T20:56:50.187Z,31.31
2022-08-17T20:59:28.805Z,30.86
2022-08-17T21:02:18.982Z,30.70
2022-08-17T21:04:55.269Z,32.05
2022-08-17T21:07:42.596Z,30.55
2022-08-17T21:10:24.969Z,30.55
2022-08-17T21:13:16.933Z,31.09
2022-08-17T21:15:49.097Z,31.09
2022-08-17T21:18:39.392Z,31.44
2022-08-17T21:21:24.330Z,31.01
2022-08-17T21:24:16.591Z,31.42
2022-08-17T21:26:56.369Z,31.60
2022-08-17T21:29:31.310Z,31.96
2022-08-17T21:32:09.106Z,31.96
2022-08-17T21:34:44.104Z,32.48
2022-08-17T21:37:25.376Z,32.38
2022-08-17T21:39:58.342Z,31.89
2022-08-17T21:42:31.563Z,32.93
2022-08-17T21:45:12.964Z,32.51
2022-08-17T21:47:43.870Z,32.75
2022-08-17T21:50:19.733Z,33.68
2022-08-17T21:52:50.238Z,34.62
2022-08-17T21:55:26.829Z,32.50
2022-08-17T21:58:14.388Z,32.54
2022-08-17T22:00:33.169Z,32.58
2022-08-17T22:03:05.271Z,34.62
2022-08-17T22:05:40.011Z,32.67
2022-08-17T22:08:16.595Z,32.76
2022-08-17T22:10:46.921Z,32.62
2022-08-17T22:13:29.315Z,33.49
2022-08-17T22:16:28.547Z,33.80
2022-08-17T22:18:53.583Z,34.39
2022-08-17T22:21:24.641Z,31.75
2022-08-17T22:24:09.219Z,32.38
2022-08-17T22:27:01.137Z,32.38
2022-08-17T22:29:45.633Z,33.21
2022-08-17T22:32:33.952Z,31.73
2022-08-17T22:35:37.974Z,32.36
2022-08-17T22:38:22.813Z,31.70
2022-08-17T22:40:55.054Z,32.65
2022-08-17T22:43:28.975Z,32.53
2022-08-17T22:46:01.137Z,32.53
2022-08-17T22:48:31.597Z,32.56
2022-08-17T22:51:15.239Z,32.56
2022-08-17T22:54:08.362Z,33.05
2022-08-17T22:56:56.227Z,33.30
2022-08-17T22:59:46.664Z,33.65
2022-08-17T23:02:31.240Z,33.54
2022-08-17T23:05:17.603Z,34.18
2022-08-17T23:07:48.308Z,32.95
2022-08-17T23:10:17.822Z,33.41
2022-08-17T23:12:47.025Z,33.08
2022-08-17T23:15:19.525Z,31.86
2022-08-17T23:17:48.589Z,31.86
2022-08-17T23:20:18.204Z,33.18
2022-08-17T23:22:52.325Z,33.09
2022-08-17T23:25:22.784Z,32.64
2022-08-17T23:27:52.104Z,33.19
2022-08-17T23:30:23.317Z,32.65
2022-08-17T23:32:54.976Z,32.65
2022-08-17T23:35:40.066Z,33.43
2022-08-17T23:38:02.013Z,32.16
2022-08-17T23:40:32.481Z,32.87
2022-08-17T23:44:37.117Z,32.26
2022-08-17T23:45:32.763Z,32.05
2022-08-17T23:48:03.460Z,32.05
2022-08-17T23:50:32.997Z,32.62
2022-08-17T23:53:03.616Z,32.91
2022-08-17T23:55:34.516Z,32.74
2022-08-17T23:58:05.881Z,31.81
